Meteo Giornale » Osservazioni meteo Austria » Linz-Hoersching

ore: 03:20 - Osservazioni Meteo Linz-Hoersching
Lat. 48° 14' N Lon. 14° 11' E Alt. 298 metri s.l.m.

nuvoloso Europe/Vienna

18 °C

Nuvoloso

Temp. 24 Ore

15 °C

33 °C

Ovest

9.3 Km/h

Dew point 18 °C

Umidità 100 %

Visibilità  10 Km

Il sole sorge alle ore 05:13

Il sole tramonta alle ore 21:04

Data e Ora Cielo e Fenomeni T °C DP °C Um. % Pres. hPa Vis. km Vento km/h
Oggi h: 03:20 nuvoloso Nuvoloso 18 18 100 1017 10 O 9.3
Oggi h: 02:50 poco_nuvoloso Poco Nuvoloso 19 18 93 1017 10 N 5.5
Oggi h: 02:20 nuvoloso_piovaschi Debole Rovescio di Pioggia 19 18 93 1016 10 N 3.7
Oggi h: 01:50 poco_nuvoloso Poco Nuvoloso 19 18 93 1017 10 O 7.4
Oggi h: 01:20 nuvoloso Nuvoloso 19 18 93 1017 10 O/SO 9.3
Oggi h: 00:50 nuvoloso Nuvoloso 19 18 93 1017 10 O 11.1
Oggi h: 00:20 poco_nuvoloso Poco Nuvoloso 18 18 100 1017 10 N 3.7
Ieri h: 23:50 nuvoloso_piovaschi Debole Rovescio di Pioggia 19 18 93 1017 10 N 5.5
Ieri h: 23:20 coperto_pioggia Pioggia Debole 19 18 93 1017 10 SO 11.1
Ieri h: 22:50 nuvoloso_piovaschi Debole Rovescio di Pioggia 19 18 93 1017 10 O/SO 9.3
Ieri h: 22:20 nuvoloso_piovaschi Debole Rovescio di Pioggia 19 18 93 1017 10 O/SO 13
Ieri h: 21:50 nuvoloso_piovaschi Debole Rovescio di Pioggia 18 18 100 1016 10 S/SO 13
Ieri h: 21:20 nuvoloso_piovaschi Debole Rovescio di Pioggia Temporale nelle Vicinanze 19 17 88 1016 10 O 24
Ieri h: 20:50 nuvoloso_temporali Temporale con Pioggia 19 17 88 1016 10 SO 18.5
Ieri h: 20:20 nuvoloso_temporali Temporale con Pioggia 18 16 88 1016 3 O/SO 38.8
Ieri h: 19:50 nuvoloso_temporali Temporale con Pioggia 26 17 57 1012 10 O/SO 22.2
Ieri h: 19:20 coperto_temporali Temporale 30 16 42 1010 10 N 5.5
Ieri h: 18:50 sereno Sereno 31 15 37 1010 10 N/NO 7.4
Ieri h: 18:20 sereno Sereno 31 15 37 1010 10 N/NO 9.3
Ieri h: 17:50 sereno Sereno 33 14 31 1010 10 N 9.3
Ieri h: 17:20 sereno Sereno 33 13 29 1010 10 N 3.7
Ieri h: 16:50 poco_nuvoloso Poco Nuvoloso 33 13 29 1011 10 N 5.5
Ieri h: 16:20 poco_nuvoloso Poco Nuvoloso 33 15 33 1011 10 N 7.4
Ieri h: 15:50 poco_nuvoloso Poco Nuvoloso 32 14 33 1011 10 N 9.3
Ieri h: 15:20 poco_nuvoloso Poco Nuvoloso 32 14 33 1011 10 N 7.4
Ieri h: 13:50 poco_nuvoloso Poco Nuvoloso 31 14 35 1012 10 NE 7.4
Ieri h: 13:20 poco_nuvoloso Poco Nuvoloso 31 16 40 1013 10 N 5.5
Ieri h: 12:50 poco_nuvoloso Poco Nuvoloso 30 16 42 1013 10 N 5.5
Ieri h: 12:20 poco_nuvoloso Poco Nuvoloso 29 16 45 1013 10 N 5.5
Ieri h: 11:50 poco_nuvoloso Poco Nuvoloso 28 16 48 1013 10 N 3.7
Ieri h: 11:20 poco_nuvoloso Poco Nuvoloso 26 16 54 1014 10 N 5.5
Ieri h: 10:50 sereno Sereno 26 17 57 1014 10 NE 7.4
Ieri h: 10:20 sereno Sereno 25 17 61 1014 10 E 7.4
Ieri h: 09:50 sereno Sereno 24 16 60 1014 10 N 5.5
Ieri h: 09:20 sereno Sereno 23 16 64 1014 10 E 7.4
Ieri h: 08:50 sereno Sereno 22 15 64 1015 10 E 7.4
Ieri h: 08:20 sereno Sereno 21 15 68 1015 10 N 3.7
Ieri h: 07:50 sereno Sereno 20 15 72 1015 10 N 1.8
Ieri h: 07:20 sereno Sereno 18 15 82 1015 10 N 1.8
Ieri h: 06:50 sereno Sereno 17 15 88 1015 10 N 3.7
Ieri h: 06:20 poco_nuvoloso Poco Nuvoloso 16 14 87 1015 10 N 3.7
Ieri h: 05:50 sereno Sereno 15 14 93 1015 10 N 3.7
Ieri h: 05:20 nebbia Nebbia a Strati 15 14 93 1015 10 N 1.8
Ieri h: 04:50 sereno Sereno 15 14 93 1015 10 N 1.8
Ieri h: 04:20 sereno Sereno 16 15 93 1015 10 N 3.7
Ieri h: 03:50 sereno Sereno 16 15 93 1015 10 N 3.7